sensor_id;sensor_type;location;lat;lon;timestamp;P1;durP1;ratioP1;P2;durP2;ratioP2
4616;SDS011;2321;42.704;23.384;2022-10-16T00:00:42;5.63;;;3.40;;
4616;SDS011;2321;42.704;23.384;2022-10-16T00:03:09;4.33;;;3.63;;
4616;SDS011;2321;42.704;23.384;2022-10-16T00:05:41;3.47;;;3.00;;
4616;SDS011;2321;42.704;23.384;2022-10-16T00:08:10;5.80;;;4.30;;
4616;SDS011;2321;42.704;23.384;2022-10-16T00:10:38;3.37;;;2.40;;
4616;SDS011;2321;42.704;23.384;2022-10-16T00:13:05;3.27;;;3.07;;
4616;SDS011;2321;42.704;23.384;2022-10-16T00:15:33;4.50;;;4.07;;
4616;SDS011;2321;42.704;23.384;2022-10-16T00:18:02;6.50;;;4.27;;
4616;SDS011;2321;42.704;23.384;2022-10-16T00:20:30;3.00;;;2.80;;
4616;SDS011;2321;42.704;23.384;2022-10-16T00:23:03;4.50;;;3.23;;
4616;SDS011;2321;42.704;23.384;2022-10-16T00:25:30;10.23;;;4.80;;
4616;SDS011;2321;42.704;23.384;2022-10-16T00:27:59;3.53;;;2.27;;
4616;SDS011;2321;42.704;23.384;2022-10-16T00:30:26;3.33;;;3.10;;
4616;SDS011;2321;42.704;23.384;2022-10-16T00:32:54;5.27;;;3.60;;
4616;SDS011;2321;42.704;23.384;2022-10-16T00:35:21;3.37;;;3.10;;
4616;SDS011;2321;42.704;23.384;2022-10-16T00:37:48;4.73;;;3.70;;
4616;SDS011;2321;42.704;23.384;2022-10-16T00:40:16;9.20;;;4.13;;
4616;SDS011;2321;42.704;23.384;2022-10-16T00:42:43;2.93;;;2.70;;
4616;SDS011;2321;42.704;23.384;2022-10-16T00:45:10;5.27;;;4.07;;
4616;SDS011;2321;42.704;23.384;2022-10-16T00:47:38;9.43;;;3.30;;
4616;SDS011;2321;42.704;23.384;2022-10-16T00:50:10;4.97;;;3.67;;
4616;SDS011;2321;42.704;23.384;2022-10-16T00:52:46;6.13;;;3.40;;
4616;SDS011;2321;42.704;23.384;2022-10-16T00:55:14;6.63;;;3.80;;
4616;SDS011;2321;42.704;23.384;2022-10-16T00:57:43;11.80;;;3.70;;
4616;SDS011;2321;42.704;23.384;2022-10-16T01:00:12;5.87;;;3.27;;
4616;SDS011;2321;42.704;23.384;2022-10-16T01:02:41;3.07;;;2.80;;
4616;SDS011;2321;42.704;23.384;2022-10-16T01:05:08;5.40;;;4.23;;
4616;SDS011;2321;42.704;23.384;2022-10-16T01:07:38;3.27;;;2.83;;
4616;SDS011;2321;42.704;23.384;2022-10-16T01:10:14;5.17;;;4.23;;
4616;SDS011;2321;42.704;23.384;2022-10-16T01:12:50;4.43;;;4.07;;
4616;SDS011;2321;42.704;23.384;2022-10-16T01:15:23;9.27;;;4.97;;
4616;SDS011;2321;42.704;23.384;2022-10-16T01:17:56;9.27;;;3.40;;
4616;SDS011;2321;42.704;23.384;2022-10-16T01:20:27;7.10;;;3.27;;
4616;SDS011;2321;42.704;23.384;2022-10-16T01:23:01;2.30;;;2.20;;
4616;SDS011;2321;42.704;23.384;2022-10-16T01:25:39;16.83;;;4.23;;
4616;SDS011;2321;42.704;23.384;2022-10-16T01:28:21;2.80;;;2.60;;
4616;SDS011;2321;42.704;23.384;2022-10-16T01:30:52;3.83;;;3.53;;
4616;SDS011;2321;42.704;23.384;2022-10-16T01:33:25;5.57;;;4.93;;
4616;SDS011;2321;42.704;23.384;2022-10-16T01:35:59;3.17;;;3.00;;
4616;SDS011;2321;42.704;23.384;2022-10-16T01:38:33;4.80;;;3.40;;
4616;SDS011;2321;42.704;23.384;2022-10-16T01:41:03;3.43;;;2.80;;
4616;SDS011;2321;42.704;23.384;2022-10-16T01:43:37;5.57;;;3.37;;
4616;SDS011;2321;42.704;23.384;2022-10-16T01:46:07;6.20;;;4.47;;
4616;SDS011;2321;42.704;23.384;2022-10-16T01:48:36;3.33;;;2.63;;
4616;SDS011;2321;42.704;23.384;2022-10-16T01:51:05;2.63;;;2.43;;
4616;SDS011;2321;42.704;23.384;2022-10-16T01:53:35;6.83;;;5.77;;
4616;SDS011;2321;42.704;23.384;2022-10-16T01:56:03;4.43;;;3.60;;
4616;SDS011;2321;42.704;23.384;2022-10-16T01:58:36;19.83;;;5.60;;
4616;SDS011;2321;42.704;23.384;2022-10-16T02:01:08;9.73;;;3.30;;
4616;SDS011;2321;42.704;23.384;2022-10-16T02:03:37;6.67;;;3.97;;
4616;SDS011;2321;42.704;23.384;2022-10-16T02:06:09;3.20;;;3.00;;
4616;SDS011;2321;42.704;23.384;2022-10-16T02:08:36;4.70;;;3.50;;
4616;SDS011;2321;42.704;23.384;2022-10-16T02:11:05;3.20;;;3.00;;
4616;SDS011;2321;42.704;23.384;2022-10-16T02:13:34;13.43;;;3.27;;
4616;SDS011;2321;42.704;23.384;2022-10-16T02:16:08;3.60;;;3.30;;
4616;SDS011;2321;42.704;23.384;2022-10-16T02:18:36;7.57;;;4.63;;
4616;SDS011;2321;42.704;23.384;2022-10-16T02:21:05;7.90;;;5.03;;
4616;SDS011;2321;42.704;23.384;2022-10-16T02:23:41;4.07;;;2.93;;
4616;SDS011;2321;42.704;23.384;2022-10-16T02:26:17;4.57;;;4.17;;
4616;SDS011;2321;42.704;23.384;2022-10-16T02:28:52;6.63;;;4.03;;
4616;SDS011;2321;42.704;23.384;2022-10-16T02:31:27;2.93;;;2.80;;
4616;SDS011;2321;42.704;23.384;2022-10-16T02:33:59;4.33;;;4.03;;
4616;SDS011;2321;42.704;23.384;2022-10-16T02:36:27;3.90;;;3.20;;
4616;SDS011;2321;42.704;23.384;2022-10-16T02:38:55;14.43;;;4.03;;
4616;SDS011;2321;42.704;23.384;2022-10-16T02:41:25;8.60;;;4.17;;
4616;SDS011;2321;42.704;23.384;2022-10-16T02:43:54;6.63;;;2.90;;
4616;SDS011;2321;42.704;23.384;2022-10-16T02:46:21;2.60;;;2.50;;
4616;SDS011;2321;42.704;23.384;2022-10-16T02:48:48;6.90;;;2.97;;
4616;SDS011;2321;42.704;23.384;2022-10-16T02:51:15;3.13;;;2.90;;
4616;SDS011;2321;42.704;23.384;2022-10-16T02:53:42;2.87;;;2.47;;
4616;SDS011;2321;42.704;23.384;2022-10-16T02:56:09;3.13;;;2.93;;
4616;SDS011;2321;42.704;23.384;2022-10-16T02:58:36;2.93;;;2.77;;
4616;SDS011;2321;42.704;23.384;2022-10-16T03:01:04;2.83;;;2.63;;
4616;SDS011;2321;42.704;23.384;2022-10-16T03:03:31;4.80;;;2.83;;
4616;SDS011;2321;42.704;23.384;2022-10-16T03:05:58;4.00;;;2.50;;
4616;SDS011;2321;42.704;23.384;2022-10-16T03:08:25;2.77;;;2.67;;
4616;SDS011;2321;42.704;23.384;2022-10-16T03:10:52;2.63;;;2.53;;
4616;SDS011;2321;42.704;23.384;2022-10-16T03:13:19;4.13;;;3.00;;
4616;SDS011;2321;42.704;23.384;2022-10-16T03:15:46;2.50;;;2.33;;
4616;SDS011;2321;42.704;23.384;2022-10-16T03:18:15;2.37;;;2.17;;
4616;SDS011;2321;42.704;23.384;2022-10-16T03:20:42;4.13;;;2.97;;
4616;SDS011;2321;42.704;23.384;2022-10-16T03:23:09;3.17;;;2.97;;
4616;SDS011;2321;42.704;23.384;2022-10-16T03:25:36;3.00;;;2.50;;
4616;SDS011;2321;42.704;23.384;2022-10-16T03:28:03;2.77;;;2.47;;
4616;SDS011;2321;42.704;23.384;2022-10-16T03:30:30;4.93;;;3.17;;
4616;SDS011;2321;42.704;23.384;2022-10-16T03:32:57;3.23;;;3.00;;
4616;SDS011;2321;42.704;23.384;2022-10-16T03:35:25;11.43;;;4.27;;
4616;SDS011;2321;42.704;23.384;2022-10-16T03:37:52;11.30;;;6.03;;
4616;SDS011;2321;42.704;23.384;2022-10-16T03:40:19;23.30;;;11.10;;
4616;SDS011;2321;42.704;23.384;2022-10-16T03:42:46;13.83;;;7.10;;
4616;SDS011;2321;42.704;23.384;2022-10-16T03:45:13;21.93;;;9.70;;
4616;SDS011;2321;42.704;23.384;2022-10-16T03:47:40;12.67;;;4.80;;
4616;SDS011;2321;42.704;23.384;2022-10-16T03:50:07;13.10;;;4.63;;
4616;SDS011;2321;42.704;23.384;2022-10-16T03:52:36;12.40;;;5.67;;
4616;SDS011;2321;42.704;23.384;2022-10-16T03:55:03;4.73;;;3.80;;
4616;SDS011;2321;42.704;23.384;2022-10-16T03:57:31;4.40;;;4.10;;
4616;SDS011;2321;42.704;23.384;2022-10-16T03:59:58;7.70;;;4.83;;
4616;SDS011;2321;42.704;23.384;2022-10-16T04:02:25;4.43;;;3.83;;
4616;SDS011;2321;42.704;23.384;2022-10-16T04:04:51;4.27;;;4.07;;
4616;SDS011;2321;42.704;23.384;2022-10-16T04:07:18;5.20;;;4.70;;
4616;SDS011;2321;42.704;23.384;2022-10-16T04:09:47;5.13;;;4.57;;
4616;SDS011;2321;42.704;23.384;2022-10-16T04:12:14;5.83;;;5.27;;
4616;SDS011;2321;42.704;23.384;2022-10-16T04:14:41;4.03;;;3.73;;
4616;SDS011;2321;42.704;23.384;2022-10-16T04:17:07;4.20;;;3.77;;
4616;SDS011;2321;42.704;23.384;2022-10-16T04:19:34;2.63;;;2.43;;
4616;SDS011;2321;42.704;23.384;2022-10-16T04:22:02;3.77;;;3.47;;
4616;SDS011;2321;42.704;23.384;2022-10-16T04:24:29;4.40;;;3.83;;
4616;SDS011;2321;42.704;23.384;2022-10-16T04:26:57;3.70;;;3.40;;
4616;SDS011;2321;42.704;23.384;2022-10-16T04:29:24;9.77;;;5.10;;
4616;SDS011;2321;42.704;23.384;2022-10-16T04:31:51;4.67;;;4.27;;
4616;SDS011;2321;42.704;23.384;2022-10-16T04:34:18;6.43;;;3.93;;
4616;SDS011;2321;42.704;23.384;2022-10-16T04:36:46;9.23;;;6.40;;
4616;SDS011;2321;42.704;23.384;2022-10-16T04:39:14;4.43;;;4.03;;
4616;SDS011;2321;42.704;23.384;2022-10-16T04:41:41;9.83;;;3.40;;
4616;SDS011;2321;42.704;23.384;2022-10-16T04:44:09;4.50;;;4.10;;
4616;SDS011;2321;42.704;23.384;2022-10-16T04:46:36;6.10;;;3.87;;
4616;SDS011;2321;42.704;23.384;2022-10-16T04:49:03;6.10;;;4.83;;
4616;SDS011;2321;42.704;23.384;2022-10-16T04:51:30;17.47;;;5.13;;
4616;SDS011;2321;42.704;23.384;2022-10-16T04:53:58;4.20;;;3.40;;
4616;SDS011;2321;42.704;23.384;2022-10-16T04:56:24;7.40;;;3.70;;
4616;SDS011;2321;42.704;23.384;2022-10-16T04:58:51;4.17;;;3.90;;
4616;SDS011;2321;42.704;23.384;2022-10-16T05:01:20;4.67;;;3.73;;
4616;SDS011;2321;42.704;23.384;2022-10-16T05:03:47;8.33;;;4.70;;
4616;SDS011;2321;42.704;23.384;2022-10-16T05:06:14;3.30;;;2.40;;
4616;SDS011;2321;42.704;23.384;2022-10-16T05:08:41;5.60;;;3.37;;
4616;SDS011;2321;42.704;23.384;2022-10-16T05:11:07;3.97;;;3.30;;
4616;SDS011;2321;42.704;23.384;2022-10-16T05:13:34;23.93;;;4.77;;
4616;SDS011;2321;42.704;23.384;2022-10-16T05:16:01;7.10;;;4.17;;
4616;SDS011;2321;42.704;23.384;2022-10-16T05:18:30;4.60;;;3.17;;
4616;SDS011;2321;42.704;23.384;2022-10-16T05:20:57;2.53;;;2.27;;
4616;SDS011;2321;42.704;23.384;2022-10-16T05:23:23;2.47;;;2.30;;
4616;SDS011;2321;42.704;23.384;2022-10-16T05:25:54;5.73;;;3.40;;
4616;SDS011;2321;42.704;23.384;2022-10-16T05:28:23;2.80;;;2.60;;
4616;SDS011;2321;42.704;23.384;2022-10-16T05:30:50;3.77;;;3.57;;
4616;SDS011;2321;42.704;23.384;2022-10-16T05:33:19;6.37;;;4.60;;
4616;SDS011;2321;42.704;23.384;2022-10-16T05:35:47;4.90;;;4.00;;
4616;SDS011;2321;42.704;23.384;2022-10-16T05:38:15;3.03;;;2.83;;
4616;SDS011;2321;42.704;23.384;2022-10-16T05:40:42;9.83;;;3.60;;
4616;SDS011;2321;42.704;23.384;2022-10-16T05:43:09;4.60;;;4.23;;
4616;SDS011;2321;42.704;23.384;2022-10-16T05:45:36;4.37;;;3.87;;
4616;SDS011;2321;42.704;23.384;2022-10-16T05:48:03;4.30;;;4.03;;
4616;SDS011;2321;42.704;23.384;2022-10-16T05:50:30;5.70;;;3.07;;
4616;SDS011;2321;42.704;23.384;2022-10-16T05:52:58;4.53;;;4.20;;
4616;SDS011;2321;42.704;23.384;2022-10-16T05:55:25;5.07;;;4.50;;
4616;SDS011;2321;42.704;23.384;2022-10-16T05:57:53;5.57;;;3.83;;
4616;SDS011;2321;42.704;23.384;2022-10-16T06:00:20;3.80;;;3.50;;
4616;SDS011;2321;42.704;23.384;2022-10-16T06:02:47;4.83;;;4.43;;
4616;SDS011;2321;42.704;23.384;2022-10-16T06:05:14;8.73;;;4.30;;
4616;SDS011;2321;42.704;23.384;2022-10-16T06:07:41;3.90;;;3.60;;
4616;SDS011;2321;42.704;23.384;2022-10-16T06:10:09;4.63;;;3.63;;
4616;SDS011;2321;42.704;23.384;2022-10-16T06:12:36;10.23;;;3.63;;
4616;SDS011;2321;42.704;23.384;2022-10-16T06:15:04;6.37;;;3.17;;
4616;SDS011;2321;42.704;23.384;2022-10-16T06:17:31;2.30;;;1.93;;
4616;SDS011;2321;42.704;23.384;2022-10-16T06:19:58;4.47;;;4.07;;
4616;SDS011;2321;42.704;23.384;2022-10-16T06:22:25;3.43;;;3.00;;
4616;SDS011;2321;42.704;23.384;2022-10-16T06:24:52;5.67;;;2.57;;
4616;SDS011;2321;42.704;23.384;2022-10-16T06:27:20;2.67;;;2.50;;
4616;SDS011;2321;42.704;23.384;2022-10-16T06:29:47;3.57;;;3.27;;
4616;SDS011;2321;42.704;23.384;2022-10-16T06:32:14;3.37;;;2.43;;
4616;SDS011;2321;42.704;23.384;2022-10-16T06:34:41;7.03;;;5.60;;
4616;SDS011;2321;42.704;23.384;2022-10-16T06:37:08;15.10;;;3.30;;
4616;SDS011;2321;42.704;23.384;2022-10-16T06:39:35;3.60;;;3.27;;
4616;SDS011;2321;42.704;23.384;2022-10-16T06:42:02;4.60;;;3.40;;
4616;SDS011;2321;42.704;23.384;2022-10-16T06:44:30;14.60;;;4.07;;
4616;SDS011;2321;42.704;23.384;2022-10-16T06:46:57;4.50;;;4.07;;
4616;SDS011;2321;42.704;23.384;2022-10-16T06:49:24;3.50;;;3.30;;
4616;SDS011;2321;42.704;23.384;2022-10-16T06:51:51;3.70;;;3.40;;
4616;SDS011;2321;42.704;23.384;2022-10-16T06:54:18;3.53;;;3.20;;
4616;SDS011;2321;42.704;23.384;2022-10-16T06:56:45;3.47;;;3.13;;
4616;SDS011;2321;42.704;23.384;2022-10-16T06:59:11;6.37;;;3.40;;
4616;SDS011;2321;42.704;23.384;2022-10-16T07:01:40;3.63;;;3.33;;
4616;SDS011;2321;42.704;23.384;2022-10-16T07:04:07;3.47;;;3.27;;
4616;SDS011;2321;42.704;23.384;2022-10-16T07:06:34;9.93;;;4.17;;
4616;SDS011;2321;42.704;23.384;2022-10-16T07:09:02;4.20;;;3.57;;
4616;SDS011;2321;42.704;23.384;2022-10-16T07:11:30;3.47;;;3.07;;
4616;SDS011;2321;42.704;23.384;2022-10-16T07:13:58;3.43;;;3.20;;
4616;SDS011;2321;42.704;23.384;2022-10-16T07:16:25;3.40;;;3.13;;
4616;SDS011;2321;42.704;23.384;2022-10-16T07:18:55;4.97;;;3.77;;
4616;SDS011;2321;42.704;23.384;2022-10-16T07:21:24;4.83;;;4.30;;
4616;SDS011;2321;42.704;23.384;2022-10-16T07:23:54;5.67;;;3.53;;
4616;SDS011;2321;42.704;23.384;2022-10-16T07:26:21;13.37;;;4.43;;
4616;SDS011;2321;42.704;23.384;2022-10-16T07:28:48;4.53;;;4.13;;
4616;SDS011;2321;42.704;23.384;2022-10-16T07:31:17;7.83;;;4.70;;
4616;SDS011;2321;42.704;23.384;2022-10-16T07:33:45;5.27;;;4.20;;
4616;SDS011;2321;42.704;23.384;2022-10-16T07:36:15;4.03;;;3.73;;
4616;SDS011;2321;42.704;23.384;2022-10-16T07:38:42;5.00;;;3.57;;
4616;SDS011;2321;42.704;23.384;2022-10-16T07:41:10;3.63;;;3.43;;
4616;SDS011;2321;42.704;23.384;2022-10-16T07:43:38;3.97;;;3.40;;
4616;SDS011;2321;42.704;23.384;2022-10-16T07:46:06;3.10;;;2.87;;
4616;SDS011;2321;42.704;23.384;2022-10-16T07:48:33;9.53;;;4.20;;
4616;SDS011;2321;42.704;23.384;2022-10-16T07:51:01;3.17;;;3.00;;
4616;SDS011;2321;42.704;23.384;2022-10-16T07:53:31;3.97;;;3.53;;
4616;SDS011;2321;42.704;23.384;2022-10-16T07:55:59;4.40;;;3.40;;
4616;SDS011;2321;42.704;23.384;2022-10-16T07:58:27;10.20;;;4.43;;
4616;SDS011;2321;42.704;23.384;2022-10-16T08:00:54;4.70;;;4.07;;
4616;SDS011;2321;42.704;23.384;2022-10-16T08:03:22;3.27;;;3.07;;
4616;SDS011;2321;42.704;23.384;2022-10-16T08:05:48;5.93;;;4.53;;
4616;SDS011;2321;42.704;23.384;2022-10-16T08:08:16;3.20;;;3.00;;
4616;SDS011;2321;42.704;23.384;2022-10-16T08:10:46;7.83;;;3.97;;
4616;SDS011;2321;42.704;23.384;2022-10-16T08:13:12;3.07;;;2.83;;
4616;SDS011;2321;42.704;23.384;2022-10-16T08:15:40;2.73;;;2.53;;
4616;SDS011;2321;42.704;23.384;2022-10-16T08:18:09;3.10;;;2.90;;
4616;SDS011;2321;42.704;23.384;2022-10-16T08:20:36;5.50;;;3.20;;
4616;SDS011;2321;42.704;23.384;2022-10-16T08:23:03;2.77;;;2.57;;
4616;SDS011;2321;42.704;23.384;2022-10-16T08:25:31;4.00;;;3.30;;
4616;SDS011;2321;42.704;23.384;2022-10-16T08:27:59;4.77;;;3.17;;
4616;SDS011;2321;42.704;23.384;2022-10-16T08:30:26;3.53;;;2.77;;
4616;SDS011;2321;42.704;23.384;2022-10-16T08:32:53;3.90;;;3.50;;
4616;SDS011;2321;42.704;23.384;2022-10-16T08:35:20;2.30;;;2.10;;
4616;SDS011;2321;42.704;23.384;2022-10-16T08:37:47;2.97;;;2.80;;
4616;SDS011;2321;42.704;23.384;2022-10-16T08:40:16;2.90;;;2.70;;
4616;SDS011;2321;42.704;23.384;2022-10-16T08:42:47;3.73;;;3.43;;
4616;SDS011;2321;42.704;23.384;2022-10-16T08:45:25;7.40;;;2.70;;
4616;SDS011;2321;42.704;23.384;2022-10-16T08:48:09;2.60;;;2.43;;
4616;SDS011;2321;42.704;23.384;2022-10-16T08:50:45;4.77;;;2.90;;
4616;SDS011;2321;42.704;23.384;2022-10-16T08:53:14;2.00;;;1.90;;
4616;SDS011;2321;42.704;23.384;2022-10-16T08:55:46;3.00;;;2.70;;
4616;SDS011;2321;42.704;23.384;2022-10-16T08:58:16;1.80;;;1.70;;
4616;SDS011;2321;42.704;23.384;2022-10-16T09:00:46;3.37;;;2.83;;
4616;SDS011;2321;42.704;23.384;2022-10-16T09:03:16;2.67;;;2.47;;
4616;SDS011;2321;42.704;23.384;2022-10-16T09:05:57;5.23;;;1.80;;
4616;SDS011;2321;42.704;23.384;2022-10-16T09:08:36;3.43;;;2.30;;
4616;SDS011;2321;42.704;23.384;2022-10-16T09:11:12;2.40;;;2.30;;
4616;SDS011;2321;42.704;23.384;2022-10-16T09:13:47;1.90;;;1.83;;
4616;SDS011;2321;42.704;23.384;2022-10-16T09:16:21;1.77;;;1.67;;
4616;SDS011;2321;42.704;23.384;2022-10-16T09:18:54;2.60;;;2.40;;
4616;SDS011;2321;42.704;23.384;2022-10-16T09:21:29;1.73;;;1.50;;
4616;SDS011;2321;42.704;23.384;2022-10-16T09:23:57;2.37;;;2.17;;
4616;SDS011;2321;42.704;23.384;2022-10-16T09:26:26;2.10;;;2.10;;
4616;SDS011;2321;42.704;23.384;2022-10-16T09:28:53;2.27;;;2.07;;
4616;SDS011;2321;42.704;23.384;2022-10-16T09:31:22;1.60;;;1.50;;
4616;SDS011;2321;42.704;23.384;2022-10-16T09:33:51;2.00;;;1.90;;
4616;SDS011;2321;42.704;23.384;2022-10-16T09:36:21;2.27;;;2.17;;
4616;SDS011;2321;42.704;23.384;2022-10-16T09:39:01;5.43;;;2.00;;
4616;SDS011;2321;42.704;23.384;2022-10-16T09:41:29;8.40;;;2.40;;
4616;SDS011;2321;42.704;23.384;2022-10-16T09:43:57;11.00;;;2.40;;
4616;SDS011;2321;42.704;23.384;2022-10-16T09:46:29;1.90;;;1.80;;
4616;SDS011;2321;42.704;23.384;2022-10-16T09:48:58;1.90;;;1.90;;
4616;SDS011;2321;42.704;23.384;2022-10-16T09:51:27;1.70;;;1.60;;
4616;SDS011;2321;42.704;23.384;2022-10-16T09:53:56;1.60;;;1.60;;
4616;SDS011;2321;42.704;23.384;2022-10-16T09:56:25;7.43;;;2.73;;
4616;SDS011;2321;42.704;23.384;2022-10-16T09:58:54;6.00;;;2.27;;
4616;SDS011;2321;42.704;23.384;2022-10-16T10:01:24;3.10;;;2.40;;
4616;SDS011;2321;42.704;23.384;2022-10-16T10:03:57;2.50;;;2.30;;
4616;SDS011;2321;42.704;23.384;2022-10-16T10:06:28;2.10;;;2.00;;
4616;SDS011;2321;42.704;23.384;2022-10-16T10:08:59;2.30;;;2.10;;
4616;SDS011;2321;42.704;23.384;2022-10-16T10:11:42;2.60;;;2.10;;
4616;SDS011;2321;42.704;23.384;2022-10-16T10:19:49;2.23;;;2.03;;
4616;SDS011;2321;42.704;23.384;2022-10-16T10:22:21;2.53;;;2.33;;
4616;SDS011;2321;42.704;23.384;2022-10-16T10:25:13;2.27;;;2.07;;
4616;SDS011;2321;42.704;23.384;2022-10-16T10:27:51;1.57;;;1.57;;
4616;SDS011;2321;42.704;23.384;2022-10-16T10:30:48;2.00;;;1.90;;
4616;SDS011;2321;42.704;23.384;2022-10-16T10:33:27;2.17;;;2.00;;
4616;SDS011;2321;42.704;23.384;2022-10-16T10:36:03;1.97;;;1.87;;
4616;SDS011;2321;42.704;23.384;2022-10-16T10:38:41;2.87;;;2.67;;
4616;SDS011;2321;42.704;23.384;2022-10-16T10:41:23;1.60;;;1.50;;
4616;SDS011;2321;42.704;23.384;2022-10-16T10:44:03;6.07;;;2.10;;
4616;SDS011;2321;42.704;23.384;2022-10-16T10:46:39;2.10;;;2.00;;
4616;SDS011;2321;42.704;23.384;2022-10-16T10:49:16;2.37;;;2.27;;
4616;SDS011;2321;42.704;23.384;2022-10-16T10:51:55;2.60;;;2.40;;
4616;SDS011;2321;42.704;23.384;2022-10-16T10:54:32;2.73;;;2.40;;
4616;SDS011;2321;42.704;23.384;2022-10-16T10:57:08;2.40;;;1.90;;
4616;SDS011;2321;42.704;23.384;2022-10-16T10:59:55;2.23;;;2.13;;
4616;SDS011;2321;42.704;23.384;2022-10-16T11:02:44;2.17;;;2.07;;
4616;SDS011;2321;42.704;23.384;2022-10-16T11:05:26;2.80;;;2.50;;
4616;SDS011;2321;42.704;23.384;2022-10-16T11:07:57;2.20;;;2.10;;
4616;SDS011;2321;42.704;23.384;2022-10-16T11:10:27;1.77;;;1.77;;
4616;SDS011;2321;42.704;23.384;2022-10-16T11:12:58;2.30;;;2.20;;
4616;SDS011;2321;42.704;23.384;2022-10-16T11:15:37;2.93;;;2.23;;
4616;SDS011;2321;42.704;23.384;2022-10-16T11:18:07;2.37;;;2.27;;
4616;SDS011;2321;42.704;23.384;2022-10-16T11:20:42;1.77;;;1.67;;
4616;SDS011;2321;42.704;23.384;2022-10-16T11:23:14;4.03;;;2.47;;
4616;SDS011;2321;42.704;23.384;2022-10-16T11:25:44;2.83;;;1.60;;
4616;SDS011;2321;42.704;23.384;2022-10-16T11:28:12;2.10;;;2.10;;
4616;SDS011;2321;42.704;23.384;2022-10-16T11:30:44;2.20;;;2.10;;
4616;SDS011;2321;42.704;23.384;2022-10-16T11:33:22;2.50;;;2.10;;
4616;SDS011;2321;42.704;23.384;2022-10-16T11:35:59;2.40;;;2.30;;
4616;SDS011;2321;42.704;23.384;2022-10-16T11:38:31;7.10;;;2.70;;
4616;SDS011;2321;42.704;23.384;2022-10-16T11:41:06;1.73;;;1.67;;
4616;SDS011;2321;42.704;23.384;2022-10-16T11:43:41;2.47;;;1.93;;
4616;SDS011;2321;42.704;23.384;2022-10-16T11:46:16;4.70;;;2.20;;
4616;SDS011;2321;42.704;23.384;2022-10-16T11:48:46;2.13;;;1.93;;
4616;SDS011;2321;42.704;23.384;2022-10-16T11:51:18;2.00;;;1.90;;
4616;SDS011;2321;42.704;23.384;2022-10-16T11:53:53;5.70;;;2.00;;
4616;SDS011;2321;42.704;23.384;2022-10-16T11:56:25;3.73;;;2.27;;
4616;SDS011;2321;42.704;23.384;2022-10-16T11:58:55;2.37;;;2.27;;
4616;SDS011;2321;42.704;23.384;2022-10-16T12:01:28;1.77;;;1.67;;
4616;SDS011;2321;42.704;23.384;2022-10-16T12:04:02;1.77;;;1.77;;
4616;SDS011;2321;42.704;23.384;2022-10-16T12:06:42;1.77;;;1.77;;
4616;SDS011;2321;42.704;23.384;2022-10-16T12:09:15;1.77;;;1.67;;
4616;SDS011;2321;42.704;23.384;2022-10-16T12:11:47;1.87;;;1.77;;
4616;SDS011;2321;42.704;23.384;2022-10-16T12:14:22;7.80;;;1.87;;
4616;SDS011;2321;42.704;23.384;2022-10-16T12:17:02;2.83;;;2.63;;
4616;SDS011;2321;42.704;23.384;2022-10-16T12:19:31;2.17;;;2.07;;
4616;SDS011;2321;42.704;23.384;2022-10-16T12:22:01;6.27;;;2.47;;
4616;SDS011;2321;42.704;23.384;2022-10-16T12:24:31;1.60;;;1.60;;
4616;SDS011;2321;42.704;23.384;2022-10-16T12:27:00;2.30;;;2.17;;
4616;SDS011;2321;42.704;23.384;2022-10-16T12:29:30;1.90;;;1.90;;
4616;SDS011;2321;42.704;23.384;2022-10-16T12:32:00;2.07;;;1.97;;
4616;SDS011;2321;42.704;23.384;2022-10-16T12:34:30;1.83;;;1.83;;
4616;SDS011;2321;42.704;23.384;2022-10-16T12:37:09;4.20;;;2.17;;
4616;SDS011;2321;42.704;23.384;2022-10-16T12:39:40;2.47;;;2.27;;
4616;SDS011;2321;42.704;23.384;2022-10-16T12:42:19;1.93;;;1.90;;
4616;SDS011;2321;42.704;23.384;2022-10-16T12:44:59;2.27;;;2.17;;
4616;SDS011;2321;42.704;23.384;2022-10-16T12:47:38;1.93;;;1.83;;
4616;SDS011;2321;42.704;23.384;2022-10-16T12:50:28;1.57;;;1.57;;
4616;SDS011;2321;42.704;23.384;2022-10-16T12:52:59;3.17;;;2.00;;
4616;SDS011;2321;42.704;23.384;2022-10-16T12:55:27;1.47;;;1.47;;
4616;SDS011;2321;42.704;23.384;2022-10-16T12:58:04;2.57;;;2.37;;
4616;SDS011;2321;42.704;23.384;2022-10-16T13:00:45;1.80;;;1.70;;
4616;SDS011;2321;42.704;23.384;2022-10-16T13:03:27;2.80;;;2.17;;
4616;SDS011;2321;42.704;23.384;2022-10-16T13:06:13;3.63;;;1.40;;
4616;SDS011;2321;42.704;23.384;2022-10-16T13:08:56;1.50;;;1.40;;
4616;SDS011;2321;42.704;23.384;2022-10-16T13:11:37;4.63;;;3.10;;
4616;SDS011;2321;42.704;23.384;2022-10-16T13:14:28;1.60;;;1.53;;
4616;SDS011;2321;42.704;23.384;2022-10-16T13:17:06;2.10;;;2.00;;
4616;SDS011;2321;42.704;23.384;2022-10-16T13:19:41;1.73;;;1.73;;
4616;SDS011;2321;42.704;23.384;2022-10-16T13:22:13;4.00;;;1.80;;
4616;SDS011;2321;42.704;23.384;2022-10-16T13:24:52;4.90;;;3.40;;
4616;SDS011;2321;42.704;23.384;2022-10-16T13:27:28;2.10;;;1.90;;
4616;SDS011;2321;42.704;23.384;2022-10-16T13:30:08;15.90;;;1.60;;
4616;SDS011;2321;42.704;23.384;2022-10-16T13:32:39;1.20;;;1.20;;
4616;SDS011;2321;42.704;23.384;2022-10-16T13:35:18;1.50;;;1.40;;
4616;SDS011;2321;42.704;23.384;2022-10-16T13:37:47;2.17;;;1.97;;
4616;SDS011;2321;42.704;23.384;2022-10-16T13:40:20;1.50;;;1.40;;
4616;SDS011;2321;42.704;23.384;2022-10-16T13:42:51;1.70;;;1.60;;
4616;SDS011;2321;42.704;23.384;2022-10-16T13:45:21;2.20;;;1.90;;
4616;SDS011;2321;42.704;23.384;2022-10-16T13:48:00;2.10;;;1.43;;
4616;SDS011;2321;42.704;23.384;2022-10-16T13:50:28;1.50;;;1.50;;
4616;SDS011;2321;42.704;23.384;2022-10-16T13:53:02;1.83;;;1.50;;
4616;SDS011;2321;42.704;23.384;2022-10-16T13:55:31;1.57;;;1.47;;
4616;SDS011;2321;42.704;23.384;2022-10-16T13:58:04;4.00;;;1.60;;
4616;SDS011;2321;42.704;23.384;2022-10-16T14:00:33;13.03;;;2.30;;
4616;SDS011;2321;42.704;23.384;2022-10-16T14:03:01;1.47;;;1.37;;
4616;SDS011;2321;42.704;23.384;2022-10-16T14:05:31;1.60;;;1.50;;
4616;SDS011;2321;42.704;23.384;2022-10-16T14:07:59;2.83;;;2.17;;
4616;SDS011;2321;42.704;23.384;2022-10-16T14:10:28;3.43;;;3.00;;
4616;SDS011;2321;42.704;23.384;2022-10-16T14:12:59;1.93;;;1.83;;
4616;SDS011;2321;42.704;23.384;2022-10-16T14:15:29;1.53;;;1.43;;
4616;SDS011;2321;42.704;23.384;2022-10-16T14:17:56;1.30;;;1.30;;
4616;SDS011;2321;42.704;23.384;2022-10-16T14:20:24;1.43;;;1.33;;
4616;SDS011;2321;42.704;23.384;2022-10-16T14:22:58;1.50;;;1.40;;
4616;SDS011;2321;42.704;23.384;2022-10-16T14:25:28;4.00;;;1.80;;
4616;SDS011;2321;42.704;23.384;2022-10-16T14:27:58;1.20;;;1.20;;
4616;SDS011;2321;42.704;23.384;2022-10-16T14:30:27;1.23;;;1.23;;
4616;SDS011;2321;42.704;23.384;2022-10-16T14:32:55;1.70;;;1.50;;
4616;SDS011;2321;42.704;23.384;2022-10-16T14:35:25;1.27;;;1.13;;
4616;SDS011;2321;42.704;23.384;2022-10-16T14:37:53;2.40;;;2.20;;
4616;SDS011;2321;42.704;23.384;2022-10-16T14:40:22;1.40;;;1.40;;
4616;SDS011;2321;42.704;23.384;2022-10-16T14:42:51;2.07;;;1.97;;
4616;SDS011;2321;42.704;23.384;2022-10-16T14:45:20;1.83;;;1.73;;
4616;SDS011;2321;42.704;23.384;2022-10-16T14:47:50;2.10;;;2.00;;
4616;SDS011;2321;42.704;23.384;2022-10-16T14:50:19;1.63;;;1.53;;
4616;SDS011;2321;42.704;23.384;2022-10-16T14:52:46;2.10;;;1.77;;
4616;SDS011;2321;42.704;23.384;2022-10-16T14:55:13;1.70;;;1.37;;
4616;SDS011;2321;42.704;23.384;2022-10-16T14:57:40;2.13;;;1.83;;
4616;SDS011;2321;42.704;23.384;2022-10-16T15:00:10;1.27;;;1.13;;
4616;SDS011;2321;42.704;23.384;2022-10-16T15:02:43;1.97;;;1.83;;
4616;SDS011;2321;42.704;23.384;2022-10-16T15:05:12;1.57;;;1.57;;
4616;SDS011;2321;42.704;23.384;2022-10-16T15:07:42;2.30;;;2.00;;
4616;SDS011;2321;42.704;23.384;2022-10-16T15:10:10;1.50;;;1.27;;
4616;SDS011;2321;42.704;23.384;2022-10-16T15:12:37;2.77;;;1.87;;
4616;SDS011;2321;42.704;23.384;2022-10-16T15:18:04;1.50;;;1.50;;
4616;SDS011;2321;42.704;23.384;2022-10-16T15:20:32;1.70;;;1.70;;
4616;SDS011;2321;42.704;23.384;2022-10-16T15:23:00;2.33;;;2.03;;
4616;SDS011;2321;42.704;23.384;2022-10-16T15:25:32;1.50;;;1.50;;
4616;SDS011;2321;42.704;23.384;2022-10-16T15:28:02;1.43;;;1.43;;